Time;durP1;ratioP1;P1;durP2;ratioP2;P2;SDS_P1;SDS_P2;PMS_P1;PMS_P2;Temp;Humidity;BMP_temperature;BMP_pressure;BME280_temperature;BME280_humidity;BME280_pressure;Samples;Min_cycle;Max_cycle;Signal;HPM_P1;HPM_P2
2022/07/27 00:00:45;;;;;;;6.57;2.63;;;;;;;;;;4994640;28;20049;-47
2022/07/27 00:03:12;;;;;;;5.72;2.35;;;;;;;;;;4997625;28;20044;-50
2022/07/27 00:05:38;;;;;;;6.00;2.28;;;;;;;;;;4995913;28;20508;-45
2022/07/27 00:08:05;;;;;;;6.97;2.50;;;;;;;;;;4995823;28;20572;-49
2022/07/27 00:10:32;;;;;;;4.55;2.42;;;;;;;;;;4994207;28;20547;-49
2022/07/27 00:12:58;;;;;;;6.28;2.90;;;;;;;;;;4990800;28;20047;-46
2022/07/27 00:15:25;;;;;;;5.25;2.80;;;;;;;;;;4996473;28;20046;-51
2022/07/27 00:17:52;;;;;;;5.82;2.78;;;;;;;;;;4991481;28;20092;-50
2022/07/27 00:20:18;;;;;;;4.18;2.75;;;;;;;;;;4999661;28;20043;-47
2022/07/27 00:22:52;;;;;;;4.82;2.92;;;;;;;;;;4991642;28;20046;-48
2022/07/27 00:25:20;;;;;;;5.47;2.67;;;;;;;;;;4988499;28;20620;-47
2022/07/27 00:27:46;;;;;;;7.25;2.90;;;;;;;;;;4991827;28;20104;-49
2022/07/27 00:30:13;;;;;;;4.65;2.80;;;;;;;;;;4991966;28;20046;-53
2022/07/27 00:32:39;;;;;;;7.13;2.97;;;;;;;;;;4990235;28;20847;-49
2022/07/27 00:35:06;;;;;;;12.02;3.88;;;;;;;;;;4990969;28;20042;-58
2022/07/27 00:37:33;;;;;;;3.80;2.75;;;;;;;;;;4991078;28;20074;-50
2022/07/27 00:39:59;;;;;;;4.78;2.97;;;;;;;;;;4988963;28;20456;-48
2022/07/27 00:42:27;;;;;;;3.95;2.42;;;;;;;;;;4998503;28;20049;-48
2022/07/27 00:44:53;;;;;;;5.13;3.03;;;;;;;;;;4994111;28;20054;-46
2022/07/27 00:47:20;;;;;;;5.30;2.80;;;;;;;;;;4998088;28;20054;-49
2022/07/27 00:49:47;;;;;;;5.18;2.65;;;;;;;;;;4992565;28;20134;-46
2022/07/27 00:52:13;;;;;;;5.15;2.85;;;;;;;;;;4994563;28;20074;-48
2022/07/27 00:54:40;;;;;;;6.55;2.90;;;;;;;;;;4994055;28;20555;-47
2022/07/27 00:57:11;;;;;;;6.85;2.95;;;;;;;;;;4999935;28;20050;-48
2022/07/27 00:59:38;;;;;;;4.28;2.90;;;;;;;;;;4989022;28;20720;-45
2022/07/27 01:02:04;;;;;;;6.50;3.00;;;;;;;;;;4995037;28;20568;-45
2022/07/27 01:04:36;;;;;;;5.47;3.13;;;;;;;;;;4992328;28;20800;-45
2022/07/27 01:07:03;;;;;;;3.63;2.80;;;;;;;;;;4994744;28;20046;-51
2022/07/27 01:12:18;;;;;;;5.10;2.63;;;;;;;;;;4993707;28;20059;-47
2022/07/27 01:14:45;;;;;;;7.68;3.13;;;;;;;;;;4994626;28;20134;-45
2022/07/27 01:17:12;;;;;;;5.15;3.45;;;;;;;;;;4999468;28;20065;-46
2022/07/27 01:19:38;;;;;;;4.85;3.05;;;;;;;;;;4993454;28;20133;-47
2022/07/27 01:22:05;;;;;;;6.10;3.45;;;;;;;;;;4994308;28;20049;-47
2022/07/27 01:24:32;;;;;;;5.93;3.63;;;;;;;;;;4994649;28;20054;-45
2022/07/27 01:27:00;;;;;;;5.47;3.65;;;;;;;;;;4995989;28;20082;-48
2022/07/27 01:29:27;;;;;;;6.47;3.75;;;;;;;;;;4991167;28;20046;-47
2022/07/27 01:31:53;;;;;;;8.60;4.03;;;;;;;;;;4996259;28;20498;-49
2022/07/27 01:34:21;;;;;;;4.65;3.60;;;;;;;;;;4998454;28;20141;-49
2022/07/27 01:36:47;;;;;;;4.53;3.60;;;;;;;;;;4996359;28;20053;-46
2022/07/27 01:39:14;;;;;;;4.95;4.00;;;;;;;;;;4994039;28;20049;-54
2022/07/27 01:41:41;;;;;;;7.80;4.13;;;;;;;;;;4994623;28;20474;-51
2022/07/27 01:44:07;;;;;;;8.43;4.40;;;;;;;;;;4999642;28;20078;-52
2022/07/27 01:46:34;;;;;;;5.93;3.65;;;;;;;;;;4997919;28;20050;-54
2022/07/27 01:49:01;;;;;;;4.72;3.67;;;;;;;;;;5000474;28;20069;-53
2022/07/27 01:51:27;;;;;;;10.02;4.15;;;;;;;;;;4988034;28;20050;-48
2022/07/27 01:53:54;;;;;;;7.88;4.10;;;;;;;;;;4999967;28;20402;-52
2022/07/27 01:56:20;;;;;;;4.45;3.80;;;;;;;;;;4997837;28;20133;-52
2022/07/27 01:58:47;;;;;;;7.43;4.03;;;;;;;;;;4998536;28;20049;-46
2022/07/27 02:01:13;;;;;;;6.43;3.85;;;;;;;;;;4998611;28;20050;-49
2022/07/27 02:03:39;;;;;;;5.05;3.70;;;;;;;;;;5000758;28;20097;-45
2022/07/27 02:06:07;;;;;;;5.75;3.88;;;;;;;;;;4994137;28;20061;-48
2022/07/27 02:08:34;;;;;;;4.50;3.70;;;;;;;;;;4996512;28;20454;-52
2022/07/27 02:13:47;;;;;;;6.35;4.10;;;;;;;;;;4997002;28;20050;-50
2022/07/27 02:16:14;;;;;;;6.80;4.32;;;;;;;;;;4994565;28;20129;-47
2022/07/27 02:18:42;;;;;;;5.63;4.15;;;;;;;;;;4996709;28;20049;-48
2022/07/27 02:21:09;;;;;;;6.03;4.30;;;;;;;;;;4999341;28;20486;-48
2022/07/27 02:23:36;;;;;;;12.45;4.25;;;;;;;;;;4996428;28;20125;-45
2022/07/27 02:26:04;;;;;;;8.45;4.38;;;;;;;;;;4994392;28;20053;-46
2022/07/27 02:28:30;;;;;;;10.02;4.60;;;;;;;;;;4993825;28;20146;-51
2022/07/27 02:30:57;;;;;;;10.57;4.97;;;;;;;;;;4994024;28;20141;-47
2022/07/27 02:33:23;;;;;;;10.27;4.53;;;;;;;;;;4997915;28;20144;-51
2022/07/27 02:35:50;;;;;;;6.40;4.63;;;;;;;;;;4995220;28;20145;-48
2022/07/27 02:38:16;;;;;;;6.78;4.63;;;;;;;;;;4997971;28;20042;-46
2022/07/27 02:40:43;;;;;;;8.00;4.57;;;;;;;;;;4996925;28;20076;-45
2022/07/27 02:43:09;;;;;;;6.80;5.00;;;;;;;;;;4993225;28;20050;-48
2022/07/27 02:45:36;;;;;;;8.18;4.63;;;;;;;;;;4995848;28;20108;-48
2022/07/27 02:48:02;;;;;;;7.90;4.70;;;;;;;;;;4993974;28;20149;-49
2022/07/27 02:50:29;;;;;;;6.82;4.70;;;;;;;;;;4997549;28;20061;-50
2022/07/27 02:52:55;;;;;;;8.13;5.10;;;;;;;;;;4997503;28;20485;-47
2022/07/27 02:55:23;;;;;;;15.05;5.00;;;;;;;;;;4994429;28;20141;-46
2022/07/27 02:57:49;;;;;;;8.10;5.25;;;;;;;;;;4995112;28;20133;-45
2022/07/27 03:00:16;;;;;;;7.45;4.45;;;;;;;;;;4992505;28;20129;-50
2022/07/27 03:02:46;;;;;;;6.57;4.60;;;;;;;;;;4993729;28;20441;-46
2022/07/27 03:05:13;;;;;;;6.25;4.97;;;;;;;;;;4995783;28;20076;-48
2022/07/27 03:07:39;;;;;;;6.28;5.05;;;;;;;;;;5002165;28;20148;-50
2022/07/27 03:10:06;;;;;;;8.43;5.10;;;;;;;;;;5000732;28;20078;-51
2022/07/27 03:12:32;;;;;;;9.52;5.05;;;;;;;;;;4995079;28;20148;-46
2022/07/27 03:14:58;;;;;;;7.45;4.88;;;;;;;;;;4994032;28;20050;-48
2022/07/27 03:17:25;;;;;;;8.63;5.43;;;;;;;;;;4996087;28;20072;-49
2022/07/27 03:19:51;;;;;;;8.20;4.97;;;;;;;;;;4998151;28;20047;-51
2022/07/27 03:22:18;;;;;;;7.45;4.82;;;;;;;;;;4997389;28;20154;-45
2022/07/27 03:24:45;;;;;;;7.25;4.75;;;;;;;;;;4994569;28;20141;-47
2022/07/27 03:27:12;;;;;;;6.50;5.20;;;;;;;;;;4995063;28;20058;-46
2022/07/27 03:29:38;;;;;;;11.48;5.72;;;;;;;;;;5011967;28;20073;-48
2022/07/27 03:32:05;;;;;;;9.77;5.63;;;;;;;;;;4993827;28;20046;-52
2022/07/27 03:34:31;;;;;;;9.68;5.85;;;;;;;;;;4998097;28;20572;-50
2022/07/27 03:36:58;;;;;;;10.43;6.28;;;;;;;;;;4990843;28;20175;-47
2022/07/27 03:39:24;;;;;;;6.97;5.45;;;;;;;;;;4991458;28;20046;-46
2022/07/27 03:41:51;;;;;;;6.05;5.10;;;;;;;;;;4990928;28;20137;-46
2022/07/27 03:44:17;;;;;;;6.05;5.03;;;;;;;;;;4993368;28;20056;-46
2022/07/27 03:46:43;;;;;;;12.85;5.55;;;;;;;;;;4991571;28;20143;-50
2022/07/27 03:49:10;;;;;;;8.57;5.68;;;;;;;;;;5012428;28;20130;-51
2022/07/27 03:51:39;;;;;;;8.70;5.88;;;;;;;;;;4994839;28;20141;-50
2022/07/27 03:54:05;;;;;;;13.10;6.22;;;;;;;;;;4996901;28;20216;-52
2022/07/27 03:56:32;;;;;;;9.63;5.60;;;;;;;;;;4993745;28;20046;-48
2022/07/27 03:58:58;;;;;;;12.20;5.53;;;;;;;;;;4992602;28;20050;-51
2022/07/27 04:01:25;;;;;;;7.15;6.05;;;;;;;;;;4992780;28;20584;-46
2022/07/27 04:03:52;;;;;;;6.78;5.45;;;;;;;;;;4994668;28;20133;-46
2022/07/27 04:06:18;;;;;;;10.15;5.70;;;;;;;;;;4992170;28;20078;-47
2022/07/27 04:08:44;;;;;;;9.35;5.85;;;;;;;;;;4995675;28;20054;-51
2022/07/27 04:11:13;;;;;;;8.25;5.50;;;;;;;;;;4992979;28;20061;-46
2022/07/27 04:13:43;;;;;;;7.13;5.68;;;;;;;;;;4997148;28;20054;-46
2022/07/27 04:16:12;;;;;;;7.15;5.47;;;;;;;;;;4998379;28;20081;-44
2022/07/27 04:18:39;;;;;;;9.30;5.63;;;;;;;;;;4996697;28;20128;-46
2022/07/27 04:21:05;;;;;;;9.32;6.13;;;;;;;;;;5000233;28;20400;-45
2022/07/27 04:23:32;;;;;;;9.05;6.40;;;;;;;;;;4988198;28;20149;-51
2022/07/27 04:26:03;;;;;;;9.45;6.30;;;;;;;;;;4993671;28;20054;-46
2022/07/27 04:28:31;;;;;;;8.88;6.05;;;;;;;;;;4996200;28;20086;-45
2022/07/27 04:30:57;;;;;;;7.43;6.13;;;;;;;;;;4995569;28;20050;-47
2022/07/27 04:33:24;;;;;;;13.40;6.20;;;;;;;;;;4995141;28;20119;-47
2022/07/27 04:35:50;;;;;;;11.15;6.57;;;;;;;;;;4995419;28;20050;-46
2022/07/27 04:38:17;;;;;;;12.88;6.15;;;;;;;;;;4992067;28;20042;-49
2022/07/27 04:40:44;;;;;;;7.88;6.50;;;;;;;;;;4992135;28;20082;-49
2022/07/27 04:43:10;;;;;;;15.05;8.25;;;;;;;;;;4989441;28;20525;-47
2022/07/27 04:45:37;;;;;;;24.02;7.95;;;;;;;;;;4994556;28;20524;-47
2022/07/27 04:48:05;;;;;;;19.25;7.07;;;;;;;;;;4993321;28;20475;-54
2022/07/27 04:50:31;;;;;;;13.05;7.25;;;;;;;;;;4990473;28;20149;-49
2022/07/27 04:52:57;;;;;;;12.15;7.10;;;;;;;;;;4992101;28;20165;-47
2022/07/27 04:55:24;;;;;;;8.98;6.40;;;;;;;;;;4989601;28;20058;-53
2022/07/27 04:57:50;;;;;;;9.90;6.45;;;;;;;;;;4989787;28;20429;-46
2022/07/27 05:00:17;;;;;;;13.07;6.47;;;;;;;;;;4990544;28;20049;-54
2022/07/27 05:02:43;;;;;;;10.52;6.35;;;;;;;;;;4994641;28;20483;-49
2022/07/27 05:05:10;;;;;;;9.32;6.28;;;;;;;;;;4989324;28;20060;-46
2022/07/27 05:07:36;;;;;;;12.70;7.10;;;;;;;;;;4992939;28;20136;-49
2022/07/27 05:10:03;;;;;;;9.88;6.40;;;;;;;;;;4992850;28;20152;-51
2022/07/27 05:12:29;;;;;;;7.90;6.28;;;;;;;;;;4987328;28;20494;-49
2022/07/27 05:14:56;;;;;;;7.13;6.00;;;;;;;;;;4986153;28;20077;-48
2022/07/27 05:17:22;;;;;;;14.60;6.43;;;;;;;;;;4988240;28;20070;-46
2022/07/27 05:19:48;;;;;;;12.13;6.65;;;;;;;;;;4991420;28;20053;-51
2022/07/27 05:22:15;;;;;;;11.27;6.28;;;;;;;;;;4986911;28;20137;-49
2022/07/27 05:24:41;;;;;;;12.80;6.63;;;;;;;;;;4990010;28;20066;-49
2022/07/27 05:27:08;;;;;;;14.45;6.63;;;;;;;;;;4991294;28;20057;-51
2022/07/27 05:29:34;;;;;;;18.48;6.80;;;;;;;;;;4991663;28;20061;-46
2022/07/27 05:32:00;;;;;;;14.50;6.93;;;;;;;;;;4988364;28;20057;-54
2022/07/27 05:34:27;;;;;;;31.98;7.18;;;;;;;;;;4991438;28;20065;-49
2022/07/27 05:36:53;;;;;;;35.03;9.15;;;;;;;;;;4996281;28;20042;-52
2022/07/27 05:39:20;;;;;;;30.65;7.88;;;;;;;;;;4989793;28;20093;-49
2022/07/27 05:41:47;;;;;;;22.70;7.70;;;;;;;;;;4991229;28;20078;-52
2022/07/27 05:44:15;;;;;;;20.10;7.15;;;;;;;;;;4991899;28;20489;-51
2022/07/27 05:46:41;;;;;;;10.88;6.20;;;;;;;;;;4991054;28;20054;-47
2022/07/27 05:49:07;;;;;;;10.70;6.28;;;;;;;;;;4993420;28;20149;-52
2022/07/27 05:51:34;;;;;;;11.25;6.15;;;;;;;;;;4990556;28;20152;-48
2022/07/27 05:54:01;;;;;;;16.42;7.25;;;;;;;;;;4988511;28;20478;-46
2022/07/27 05:56:27;;;;;;;11.18;6.72;;;;;;;;;;4994619;28;20073;-49
2022/07/27 05:58:53;;;;;;;9.55;6.13;;;;;;;;;;4991910;28;20105;-50
2022/07/27 06:01:20;;;;;;;10.43;6.00;;;;;;;;;;4993327;28;20141;-49
2022/07/27 06:03:47;;;;;;;9.50;6.30;;;;;;;;;;4998542;28;20092;-53
2022/07/27 06:09:00;;;;;;;;;;;;;;;;;;4994709;28;20078;-53
2022/07/27 06:11:26;;;;;;;8.93;6.72;;;;;;;;;;4994346;28;19964;-54
2022/07/27 06:13:54;;;;;;;8.27;5.78;;;;;;;;;;4992675;28;20056;-49
2022/07/27 06:16:21;;;;;;;8.23;5.70;;;;;;;;;;4993663;28;20108;-52
2022/07/27 06:18:48;;;;;;;11.32;6.00;;;;;;;;;;4990813;28;20057;-49
2022/07/27 06:21:15;;;;;;;8.73;6.10;;;;;;;;;;4994843;28;20051;-52
2022/07/27 06:23:42;;;;;;;7.35;6.20;;;;;;;;;;4994358;28;20061;-52
2022/07/27 06:26:08;;;;;;;9.20;5.85;;;;;;;;;;4998252;28;20055;-54
2022/07/27 06:28:34;;;;;;;6.65;5.47;;;;;;;;;;4989240;28;20420;-55
2022/07/27 06:31:01;;;;;;;8.07;6.03;;;;;;;;;;4998190;28;20414;-54
2022/07/27 06:33:27;;;;;;;7.93;6.25;;;;;;;;;;4994908;28;20137;-50
2022/07/27 06:35:55;;;;;;;11.15;5.93;;;;;;;;;;5005717;28;20497;-48
2022/07/27 06:38:23;;;;;;;10.13;6.30;;;;;;;;;;4992837;28;20093;-48
2022/07/27 06:40:53;;;;;;;11.18;6.18;;;;;;;;;;4994197;28;20057;-51
2022/07/27 06:43:19;;;;;;;9.85;5.90;;;;;;;;;;4996680;28;20046;-48
2022/07/27 06:45:46;;;;;;;10.20;6.18;;;;;;;;;;5002184;28;20082;-47
2022/07/27 06:48:12;;;;;;;8.30;5.97;;;;;;;;;;4998003;28;20535;-49
2022/07/27 06:50:39;;;;;;;12.00;6.57;;;;;;;;;;4992117;28;20572;-48
2022/07/27 06:53:05;;;;;;;8.25;5.90;;;;;;;;;;4992392;28;20069;-49
2022/07/27 06:55:32;;;;;;;7.20;5.97;;;;;;;;;;4989984;28;20055;-48
2022/07/27 06:57:58;;;;;;;10.68;6.63;;;;;;;;;;4992207;28;20134;-51
2022/07/27 07:00:25;;;;;;;10.88;6.38;;;;;;;;;;4997029;28;20469;-47
2022/07/27 07:02:53;;;;;;;9.70;6.20;;;;;;;;;;4993962;28;20112;-49
2022/07/27 07:05:19;;;;;;;12.10;6.05;;;;;;;;;;4995323;28;20058;-50
2022/07/27 07:07:46;;;;;;;7.45;5.97;;;;;;;;;;4995984;28;20057;-50
2022/07/27 07:10:12;;;;;;;8.25;5.93;;;;;;;;;;4994195;28;20502;-52
2022/07/27 07:12:39;;;;;;;9.65;5.72;;;;;;;;;;5001597;28;20198;-52
2022/07/27 07:15:05;;;;;;;10.18;6.13;;;;;;;;;;4998115;28;20605;-50
2022/07/27 07:17:32;;;;;;;10.75;5.70;;;;;;;;;;4998658;28;20042;-52
2022/07/27 07:19:58;;;;;;;8.85;5.80;;;;;;;;;;4996715;28;20105;-47
2022/07/27 07:22:25;;;;;;;7.70;5.93;;;;;;;;;;4994165;28;20901;-50
2022/07/27 07:24:51;;;;;;;8.20;6.20;;;;;;;;;;4991349;28;20062;-50
2022/07/27 07:27:22;;;;;;;8.70;6.40;;;;;;;;;;4994050;28;20081;-47
2022/07/27 07:29:48;;;;;;;7.53;6.22;;;;;;;;;;4992823;28;20145;-47
2022/07/27 07:32:15;;;;;;;8.23;5.80;;;;;;;;;;4994667;28;20123;-48
2022/07/27 07:34:41;;;;;;;9.15;5.60;;;;;;;;;;4993357;28;20081;-51
2022/07/27 07:37:08;;;;;;;9.95;5.82;;;;;;;;;;4992958;28;20042;-47
2022/07/27 07:39:34;;;;;;;18.38;7.15;;;;;;;;;;4992996;28;20141;-47
2022/07/27 07:42:01;;;;;;;14.48;6.00;;;;;;;;;;4998101;28;20138;-51
2022/07/27 07:44:27;;;;;;;10.57;5.60;;;;;;;;;;4989076;28;20156;-53
2022/07/27 07:46:53;;;;;;;10.15;5.70;;;;;;;;;;4997448;28;20129;-51
2022/07/27 07:49:21;;;;;;;7.63;5.30;;;;;;;;;;4996263;28;20096;-50
2022/07/27 07:52:05;;;;;;;12.80;6.40;;;;;;;;;;4988988;28;20141;-51
2022/07/27 07:54:32;;;;;;;8.27;5.53;;;;;;;;;;4995765;28;20054;-54
2022/07/27 07:56:58;;;;;;;8.18;5.38;;;;;;;;;;4995616;28;20560;-49
2022/07/27 07:59:24;;;;;;;7.57;5.82;;;;;;;;;;4990376;28;20648;-55
2022/07/27 08:01:51;;;;;;;8.32;5.22;;;;;;;;;;4997389;28;20082;-48
2022/07/27 08:04:17;;;;;;;6.90;5.35;;;;;;;;;;4992336;28;20046;-49
2022/07/27 08:06:44;;;;;;;9.38;5.55;;;;;;;;;;4997032;28;20144;-53
2022/07/27 08:09:12;;;;;;;8.45;5.20;;;;;;;;;;4990940;28;20130;-49
2022/07/27 08:11:39;;;;;;;8.07;5.80;;;;;;;;;;4993275;28;20422;-52
2022/07/27 08:14:05;;;;;;;9.18;5.60;;;;;;;;;;4992400;28;20128;-50
2022/07/27 08:16:32;;;;;;;7.50;5.38;;;;;;;;;;5001039;28;20144;-52
2022/07/27 08:18:58;;;;;;;10.18;5.82;;;;;;;;;;4991270;28;20105;-52
2022/07/27 08:21:25;;;;;;;10.27;6.00;;;;;;;;;;4992222;28;20077;-52
2022/07/27 08:23:54;;;;;;;7.40;5.60;;;;;;;;;;4997090;28;20050;-47
2022/07/27 08:26:24;;;;;;;8.35;5.53;;;;;;;;;;4991318;28;20073;-55
2022/07/27 08:28:50;;;;;;;12.10;5.32;;;;;;;;;;4994509;28;20169;-53
2022/07/27 08:31:16;;;;;;;10.07;5.55;;;;;;;;;;4997049;28;20042;-53
2022/07/27 08:33:51;;;;;;;8.45;5.72;;;;;;;;;;4991524;28;20069;-53
2022/07/27 08:36:18;;;;;;;13.00;6.32;;;;;;;;;;4992030;28;20500;-54
2022/07/27 08:38:44;;;;;;;7.38;5.82;;;;;;;;;;4993420;28;20061;-49
2022/07/27 08:41:12;;;;;;;10.25;6.28;;;;;;;;;;4994509;28;20074;-52
2022/07/27 08:43:40;;;;;;;12.02;5.63;;;;;;;;;;4992793;28;20042;-49
2022/07/27 08:46:09;;;;;;;12.57;5.28;;;;;;;;;;4994004;28;20129;-50
2022/07/27 08:48:37;;;;;;;10.02;6.22;;;;;;;;;;4991964;28;20588;-53
2022/07/27 08:51:03;;;;;;;11.93;5.90;;;;;;;;;;4998711;28;20069;-51
2022/07/27 08:53:30;;;;;;;11.70;5.85;;;;;;;;;;4995079;28;20177;-52
2022/07/27 08:56:17;;;;;;;8.73;5.15;;;;;;;;;;4992988;28;20042;-49
2022/07/27 08:58:43;;;;;;;7.53;5.93;;;;;;;;;;4995309;28;20046;-52
2022/07/27 09:01:10;;;;;;;6.80;6.10;;;;;;;;;;4997244;28;20092;-50
2022/07/27 09:03:36;;;;;;;7.90;5.15;;;;;;;;;;4997787;28;20092;-52
2022/07/27 09:06:03;;;;;;;8.07;5.38;;;;;;;;;;4989063;28;20497;-48
2022/07/27 09:08:32;;;;;;;12.05;5.32;;;;;;;;;;4994798;28;20133;-55
2022/07/27 09:10:59;;;;;;;7.80;5.88;;;;;;;;;;4994008;28;20125;-52
2022/07/27 09:13:25;;;;;;;10.57;5.90;;;;;;;;;;4995854;28;20061;-52
2022/07/27 09:15:54;;;;;;;10.43;5.70;;;;;;;;;;4991113;28;20137;-52
2022/07/27 09:18:40;;;;;;;17.77;5.28;;;;;;;;;;4995217;28;20054;-55
2022/07/27 09:21:09;;;;;;;8.23;5.95;;;;;;;;;;4991231;28;20141;-56
2022/07/27 09:23:37;;;;;;;7.90;5.82;;;;;;;;;;4990154;28;20137;-56
2022/07/27 09:26:18;;;;;;;8.35;5.90;;;;;;;;;;4992217;28;20061;-56
2022/07/27 09:29:07;;;;;;;10.38;5.88;;;;;;;;;;4995160;28;20138;-54
2022/07/27 09:31:41;;;;;;;6.25;5.55;;;;;;;;;;4990650;28;20064;-51
2022/07/27 09:34:08;;;;;;;7.35;4.80;;;;;;;;;;4995696;28;20043;-51
2022/07/27 09:36:48;;;;;;;7.35;5.43;;;;;;;;;;4999219;28;20073;-54
2022/07/27 09:39:17;;;;;;;7.03;5.60;;;;;;;;;;4991407;28;20129;-50
2022/07/27 09:41:45;;;;;;;8.77;5.32;;;;;;;;;;4994952;28;20424;-48
2022/07/27 09:44:13;;;;;;;7.35;5.63;;;;;;;;;;4994097;28;20050;-47
2022/07/27 09:46:59;;;;;;;8.48;5.82;;;;;;;;;;4998083;28;20091;-51
2022/07/27 09:49:26;;;;;;;8.77;5.53;;;;;;;;;;4988074;28;20050;-47
2022/07/27 09:51:54;;;;;;;8.35;5.50;;;;;;;;;;4993237;28;20134;-48
2022/07/27 09:54:27;;;;;;;7.60;5.25;;;;;;;;;;4994050;28;20050;-52
2022/07/27 09:57:00;;;;;;;6.18;5.25;;;;;;;;;;4989590;28;20078;-52
2022/07/27 09:59:26;;;;;;;6.97;5.60;;;;;;;;;;4991836;28;21693;-50
2022/07/27 10:01:54;;;;;;;6.70;5.70;;;;;;;;;;4996691;28;20529;-48
2022/07/27 10:04:21;;;;;;;12.48;5.45;;;;;;;;;;4995391;28;20501;-47
2022/07/27 10:06:48;;;;;;;8.10;5.78;;;;;;;;;;4990440;28;20054;-47
2022/07/27 10:09:31;;;;;;;7.57;5.50;;;;;;;;;;4997328;28;20054;-48
2022/07/27 10:11:58;;;;;;;8.85;5.00;;;;;;;;;;5000385;28;20077;-49
2022/07/27 10:14:27;;;;;;;6.80;4.93;;;;;;;;;;4992475;28;20052;-47
2022/07/27 10:16:53;;;;;;;9.40;5.90;;;;;;;;;;4993319;28;20132;-54
2022/07/27 10:19:39;;;;;;;6.57;4.88;;;;;;;;;;4992329;28;20912;-50
2022/07/27 10:22:05;;;;;;;11.30;5.40;;;;;;;;;;4991997;28;20043;-50
2022/07/27 10:24:35;;;;;;;12.10;5.22;;;;;;;;;;4997843;28;20168;-47
2022/07/27 10:27:18;;;;;;;8.80;5.38;;;;;;;;;;4998027;28;20124;-50
2022/07/27 10:29:46;;;;;;;6.85;4.80;;;;;;;;;;4994029;28;20093;-48
2022/07/27 10:32:21;;;;;;;9.13;5.20;;;;;;;;;;4992406;28;20069;-47
2022/07/27 10:34:48;;;;;;;7.60;4.80;;;;;;;;;;4995034;28;20720;-48
2022/07/27 10:37:14;;;;;;;6.43;4.68;;;;;;;;;;4995618;28;20050;-48
2022/07/27 10:39:41;;;;;;;7.20;4.20;;;;;;;;;;4993919;28;20133;-50
2022/07/27 10:42:23;;;;;;;6.88;4.13;;;;;;;;;;4994995;28;20049;-47
2022/07/27 10:44:52;;;;;;;8.50;4.22;;;;;;;;;;4996450;28;20105;-48
2022/07/27 10:47:32;;;;;;;6.65;3.90;;;;;;;;;;4991890;28;21022;-72
2022/07/27 10:50:11;;;;;;;5.65;3.92;;;;;;;;;;4995479;28;20589;-72
2022/07/27 10:52:41;;;;;;;4.40;3.58;;;;;;;;;;4988998;28;20220;-73
2022/07/27 10:55:28;;;;;;;7.15;4.00;;;;;;;;;;4989833;28;20141;-76
2022/07/27 10:57:55;;;;;;;8.10;3.75;;;;;;;;;;4989456;28;20108;-71
2022/07/27 11:00:41;;;;;;;13.65;4.82;;;;;;;;;;4998443;28;20077;-73
2022/07/27 11:03:08;;;;;;;4.80;4.10;;;;;;;;;;4987568;28;20129;-74
2022/07/27 11:05:34;;;;;;;5.65;3.95;;;;;;;;;;4991230;28;20480;-72
2022/07/27 11:08:25;;;;;;;6.75;3.78;;;;;;;;;;4987348;28;20516;-74
2022/07/27 11:11:15;;;;;;;9.40;4.00;;;;;;;;;;4987275;28;20077;-72
2022/07/27 11:13:42;;;;;;;6.75;4.05;;;;;;;;;;4987642;28;20074;-74
2022/07/27 11:16:09;;;;;;;5.60;3.88;;;;;;;;;;4987380;28;20134;-75
2022/07/27 11:18:53;;;;;;;4.43;3.75;;;;;;;;;;4987266;28;20046;-76
2022/07/27 11:21:24;;;;;;;4.93;3.30;;;;;;;;;;4987037;28;20054;-76
2022/07/27 11:23:52;;;;;;;4.18;3.38;;;;;;;;;;4987597;28;20579;-75
2022/07/27 11:26:19;;;;;;;5.00;3.72;;;;;;;;;;4987533;28;20425;-76
2022/07/27 11:28:45;;;;;;;8.48;3.78;;;;;;;;;;5004450;28;20062;-77
2022/07/27 11:31:12;;;;;;;7.65;3.63;;;;;;;;;;4990352;28;20042;-78
2022/07/27 11:33:56;;;;;;;5.80;3.50;;;;;;;;;;4991572;28;20069;-77
2022/07/27 11:36:33;;;;;;;7.80;3.25;;;;;;;;;;4988208;28;20077;-78
2022/07/27 11:38:59;;;;;;;5.22;3.33;;;;;;;;;;4991607;28;20042;-77
2022/07/27 11:41:27;;;;;;;7.45;3.50;;;;;;;;;;4992284;28;20065;-77
2022/07/27 11:44:14;;;;;;;6.28;3.22;;;;;;;;;;4985232;28;20046;-75
2022/07/27 11:46:43;;;;;;;6.03;2.70;;;;;;;;;;4987690;28;20046;-76
2022/07/27 11:49:13;;;;;;;5.30;3.55;;;;;;;;;;5002544;28;20050;-77
2022/07/27 11:51:42;;;;;;;11.10;3.50;;;;;;;;;;4989599;28;20074;-76
2022/07/27 11:54:10;;;;;;;4.10;2.85;;;;;;;;;;4989670;28;20073;-75
2022/07/27 11:56:37;;;;;;;7.45;2.95;;;;;;;;;;4988871;28;20078;-77
2022/07/27 11:59:09;;;;;;;6.65;3.22;;;;;;;;;;4989479;28;20047;-76
2022/07/27 12:01:37;;;;;;;5.68;3.25;;;;;;;;;;4989995;28;20042;-76
2022/07/27 12:04:12;;;;;;;5.95;3.13;;;;;;;;;;4990593;28;20136;-76
2022/07/27 12:06:39;;;;;;;8.00;3.28;;;;;;;;;;4988067;28;20129;-74
2022/07/27 12:09:07;;;;;;;8.90;3.47;;;;;;;;;;4987730;28;20097;-75
2022/07/27 12:11:45;;;;;;;3.78;3.20;;;;;;;;;;4983182;28;20053;-76
2022/07/27 12:14:12;;;;;;;4.35;3.05;;;;;;;;;;4986316;28;20038;-74
2022/07/27 12:16:38;;;;;;;3.15;2.85;;;;;;;;;;4985181;28;20589;-75
2022/07/27 12:19:05;;;;;;;5.72;3.10;;;;;;;;;;4987486;28;20502;-76
2022/07/27 12:21:32;;;;;;;8.52;3.00;;;;;;;;;;4989082;28;20146;-76
2022/07/27 12:23:59;;;;;;;5.63;2.83;;;;;;;;;;4983210;28;20046;-74
2022/07/27 12:26:25;;;;;;;6.57;2.70;;;;;;;;;;4989878;28;20129;-74
2022/07/27 12:29:11;;;;;;;5.78;2.58;;;;;;;;;;4986246;28;20616;-74
2022/07/27 12:31:47;;;;;;;3.88;2.60;;;;;;;;;;4986312;28;20512;-75
2022/07/27 12:34:13;;;;;;;4.93;2.40;;;;;;;;;;4994595;28;20078;-76
2022/07/27 12:36:40;;;;;;;3.80;2.60;;;;;;;;;;4985883;28;20404;-76
2022/07/27 12:39:07;;;;;;;5.68;2.65;;;;;;;;;;4984424;28;20070;-76
2022/07/27 12:41:38;;;;;;;8.55;2.67;;;;;;;;;;4993176;28;20050;-75
2022/07/27 12:44:12;;;;;;;5.93;2.33;;;;;;;;;;4992351;28;20101;-74
2022/07/27 12:46:55;;;;;;;4.57;2.60;;;;;;;;;;4988069;28;20133;-75
2022/07/27 12:49:23;;;;;;;3.92;2.42;;;;;;;;;;4987670;28;20180;-74
2022/07/27 12:51:50;;;;;;;5.82;2.20;;;;;;;;;;4986750;28;20054;-75
2022/07/27 12:54:17;;;;;;;4.07;2.42;;;;;;;;;;4983084;28;20078;-75
2022/07/27 12:56:45;;;;;;;4.45;2.70;;;;;;;;;;4986629;28;20077;-76
2022/07/27 12:59:12;;;;;;;5.55;2.63;;;;;;;;;;4984265;28;20497;-75
2022/07/27 13:01:39;;;;;;;4.10;2.38;;;;;;;;;;4986543;28;20042;-77
2022/07/27 13:04:06;;;;;;;5.45;2.35;;;;;;;;;;4987778;28;20082;-76
2022/07/27 13:06:32;;;;;;;4.43;2.40;;;;;;;;;;5000745;28;20129;-77
2022/07/27 13:08:59;;;;;;;5.72;2.00;;;;;;;;;;4989348;28;20054;-75
2022/07/27 13:11:25;;;;;;;4.45;2.33;;;;;;;;;;4997961;28;20137;-75
2022/07/27 13:13:52;;;;;;;3.33;2.45;;;;;;;;;;4991097;28;20093;-75
2022/07/27 13:16:18;;;;;;;3.13;2.13;;;;;;;;;;4994677;28;20065;-76
2022/07/27 13:18:45;;;;;;;3.17;2.30;;;;;;;;;;4992117;28;20046;-76
2022/07/27 13:21:12;;;;;;;3.50;2.35;;;;;;;;;;4991502;28;20433;-75
2022/07/27 13:23:38;;;;;;;5.47;2.33;;;;;;;;;;4989517;28;20459;-76
2022/07/27 13:26:04;;;;;;;3.17;2.33;;;;;;;;;;5001283;28;20056;-75
2022/07/27 13:28:31;;;;;;;6.78;2.90;;;;;;;;;;4996152;28;20081;-75
2022/07/27 13:30:57;;;;;;;5.05;2.58;;;;;;;;;;4990568;28;20056;-76
2022/07/27 13:33:23;;;;;;;5.57;2.55;;;;;;;;;;4992776;28;21553;-75
2022/07/27 13:35:50;;;;;;;4.43;2.45;;;;;;;;;;4993155;28;20073;-75
2022/07/27 13:38:27;;;;;;;3.22;2.30;;;;;;;;;;4998268;28;20050;-75
2022/07/27 13:40:53;;;;;;;5.47;2.40;;;;;;;;;;4990878;28;20129;-74
2022/07/27 13:43:20;;;;;;;4.35;2.90;;;;;;;;;;5001068;28;20124;-75
2022/07/27 13:45:46;;;;;;;4.30;2.50;;;;;;;;;;4996614;28;20133;-75
2022/07/27 13:48:13;;;;;;;5.60;2.90;;;;;;;;;;4991290;28;20043;-75
2022/07/27 13:50:39;;;;;;;3.55;2.50;;;;;;;;;;4997203;28;20521;-77
2022/07/27 13:53:06;;;;;;;5.35;2.55;;;;;;;;;;4994829;28;20074;-75
2022/07/27 13:55:33;;;;;;;5.22;2.50;;;;;;;;;;4991641;28;20046;-76
2022/07/27 13:57:59;;;;;;;6.75;2.22;;;;;;;;;;4992404;28;20551;-76
2022/07/27 14:00:25;;;;;;;4.00;2.25;;;;;;;;;;4993023;28;20541;-74
2022/07/27 14:02:52;;;;;;;3.05;2.22;;;;;;;;;;4994232;28;20042;-74
2022/07/27 14:05:19;;;;;;;2.33;2.13;;;;;;;;;;4993554;28;20061;-75
2022/07/27 14:07:45;;;;;;;4.28;2.50;;;;;;;;;;4988821;28;20058;-76
2022/07/27 14:10:30;;;;;;;3.83;2.40;;;;;;;;;;4990767;28;20153;-73
2022/07/27 14:12:59;;;;;;;7.32;3.00;;;;;;;;;;4989470;28;20065;-75
2022/07/27 14:15:33;;;;;;;6.38;3.50;;;;;;;;;;4990637;28;20062;-73
2022/07/27 14:18:16;;;;;;;5.68;2.17;;;;;;;;;;4990268;28;20043;-76
2022/07/27 14:20:42;;;;;;;3.50;2.42;;;;;;;;;;4988520;28;20046;-74
2022/07/27 14:23:09;;;;;;;2.75;2.35;;;;;;;;;;4991524;28;20054;-75
2022/07/27 14:25:35;;;;;;;2.50;1.90;;;;;;;;;;4994435;28;20072;-73
2022/07/27 14:28:01;;;;;;;2.90;2.00;;;;;;;;;;4993003;28;20228;-75
2022/07/27 14:30:28;;;;;;;4.50;2.33;;;;;;;;;;4992201;28;20777;-74
2022/07/27 14:32:54;;;;;;;7.22;2.55;;;;;;;;;;4991020;28;20158;-78
2022/07/27 14:35:21;;;;;;;4.53;2.33;;;;;;;;;;4989546;28;20078;-75
2022/07/27 14:37:47;;;;;;;2.55;2.33;;;;;;;;;;4991174;28;20137;-73
2022/07/27 14:40:14;;;;;;;9.90;2.55;;;;;;;;;;4990858;28;20042;-77
2022/07/27 14:42:40;;;;;;;6.25;2.80;;;;;;;;;;4991063;28;20062;-75
2022/07/27 14:45:07;;;;;;;3.53;2.60;;;;;;;;;;4988457;28;20050;-76
2022/07/27 14:47:33;;;;;;;5.47;2.30;;;;;;;;;;4993183;28;20133;-73
2022/07/27 14:50:00;;;;;;;6.28;2.50;;;;;;;;;;4997707;28;20778;-73
2022/07/27 14:52:26;;;;;;;3.30;2.22;;;;;;;;;;4992534;28;20046;-75
2022/07/27 14:54:58;;;;;;;7.32;4.40;;;;;;;;;;4992983;28;20058;-77